Time;durP1;ratioP1;P1;durP2;ratioP2;P2;SDS_P1;SDS_P2;PMS_P1;PMS_P2;Temp;Humidity;BMP_temperature;BMP_pressure;BME280_temperature;BME280_humidity;BME280_pressure;Samples;Min_cycle;Max_cycle;Signal;HPM_P1;HPM_P2
2022/08/22 00:02:06;;;;;;;0.10;0.00;;;;;;;15.95;100.00;96190.34;108496;1267;25305;-80
2022/08/22 00:04:44;;;;;;;1.50;0.10;;;;;;;15.93;100.00;96189.68;108565;1268;22466;-81
2022/08/22 00:07:21;;;;;;;0.20;0.10;;;;;;;15.93;100.00;96190.77;108597;1267;22992;-81
2022/08/22 00:09:57;;;;;;;1.70;0.20;;;;;;;15.91;100.00;96188.16;108489;1268;40209;-81
2022/08/22 00:12:34;;;;;;;0.70;0.10;;;;;;;15.84;100.00;96183.59;108576;1266;22800;-81
2022/08/22 00:15:10;;;;;;;0.00;0.00;;;;;;;15.79;100.00;96177.12;108585;1268;22577;-81
2022/08/22 00:17:48;;;;;;;0.60;0.10;;;;;;;15.76;100.00;96172.79;108562;1267;23995;-81
2022/08/22 00:20:24;;;;;;;0.20;0.10;;;;;;;15.72;100.00;96173.73;108472;1268;22567;-81
2022/08/22 00:22:58;;;;;;;0.50;0.10;;;;;;;15.72;100.00;96169.65;108601;1268;22543;-81
2022/08/22 00:25:41;;;;;;;0.60;0.10;;;;;;;15.71;100.00;96170.80;108572;1266;23784;-81
2022/08/22 00:28:13;;;;;;;0.30;0.10;;;;;;;15.70;100.00;96169.98;108489;1268;25719;-81
2022/08/22 00:30:52;;;;;;;0.10;0.10;;;;;;;15.69;100.00;96169.70;108550;1268;24348;-81
2022/08/22 00:33:28;;;;;;;0.10;0.10;;;;;;;15.68;100.00;96168.52;108573;1268;22487;-81
2022/08/22 00:36:08;;;;;;;0.10;0.10;;;;;;;15.68;100.00;96169.96;108560;1265;22545;-80
2022/08/22 00:38:40;;;;;;;;;;;;;;;15.67;100.00;96171.77;108518;1268;26133;-81
2022/08/22 00:41:29;;;;;;;0.10;0.10;;;;;;;15.67;100.00;96170.38;108579;1267;22540;-81
2022/08/22 00:44:16;;;;;;;0.60;0.10;;;;;;;15.68;100.00;96164.84;108563;1267;22538;-80
2022/08/22 00:47:11;;;;;;;0.20;0.10;;;;;;;15.68;100.00;96158.45;108588;1268;22573;-81
2022/08/22 00:50:04;;;;;;;0.30;0.20;;;;;;;15.67;100.00;96154.59;108471;1267;43413;-80
2022/08/22 00:52:54;;;;;;;0.30;0.10;;;;;;;15.66;100.00;96153.95;108507;1267;22458;-80
2022/08/22 00:55:43;;;;;;;0.10;0.10;;;;;;;15.69;100.00;96155.87;108591;1268;22525;-81
2022/08/22 00:58:37;;;;;;;1.10;0.20;;;;;;;15.73;100.00;96156.03;108510;1268;26241;-81
2022/08/22 01:01:09;;;;;;;0.80;0.20;;;;;;;15.78;100.00;96154.70;108538;1268;22559;-80
2022/08/22 01:04:08;;;;;;;0.50;0.10;;;;;;;15.81;100.00;96160.47;108587;1268;22542;-81
2022/08/22 01:06:50;;;;;;;0.60;0.10;;;;;;;15.83;100.00;96166.20;108443;1267;22563;-81
2022/08/22 01:09:25;;;;;;;;;;;;;;;15.86;100.00;96165.47;108478;1267;31177;-81
2022/08/22 01:12:10;;;;;;;0.20;0.10;;;;;;;15.83;100.00;96168.70;108610;1268;23780;-81
2022/08/22 01:14:45;;;;;;;0.20;0.20;;;;;;;15.78;100.00;96175.11;108540;1268;22559;-80
2022/08/22 01:17:48;;;;;;;0.50;0.30;;;;;;;15.74;100.00;96180.89;108520;1268;22729;-81
2022/08/22 01:20:45;;;;;;;0.10;0.10;;;;;;;15.72;100.00;96183.33;108560;1268;22544;-81
2022/08/22 01:23:46;;;;;;;0.90;0.30;;;;;;;15.69;100.00;96177.18;108562;1268;22525;-81
2022/08/22 01:26:51;;;;;;;0.10;0.10;;;;;;;15.67;100.00;96176.45;108578;1268;22669;-78
2022/08/22 01:29:50;;;;;;;0.80;0.20;;;;;;;15.65;100.00;96177.58;108441;1268;33636;-80
2022/08/22 01:32:53;;;;;;;0.80;0.20;;;;;;;15.65;100.00;96177.27;108548;1268;22543;-81
2022/08/22 01:35:40;;;;;;;0.20;0.10;;;;;;;15.65;100.00;96171.39;108542;1268;22550;-80
2022/08/22 01:38:36;;;;;;;0.90;0.30;;;;;;;15.67;100.00;96174.73;108528;1268;27747;-80
2022/08/22 01:41:41;;;;;;;1.80;0.50;;;;;;;15.70;100.00;96172.24;108577;1267;23893;-80
2022/08/22 01:44:28;;;;;;;1.00;0.40;;;;;;;15.71;100.00;96169.71;108567;1265;22571;-80
2022/08/22 01:47:03;;;;;;;1.10;0.60;;;;;;;15.73;100.00;96170.46;108408;1268;23353;-80
2022/08/22 01:49:41;;;;;;;1.40;0.40;;;;;;;15.75;100.00;96174.26;108526;1266;30753;-80
2022/08/22 01:52:15;;;;;;;0.70;0.40;;;;;;;15.76;100.00;96179.30;108563;1268;22562;-80
2022/08/22 01:54:53;;;;;;;2.60;0.80;;;;;;;15.77;100.00;96173.52;108394;1268;23144;-81
2022/08/22 01:57:27;;;;;;;1.00;0.70;;;;;;;15.75;100.00;96173.29;108556;1268;23777;-80
2022/08/22 02:00:03;;;;;;;2.60;0.40;;;;;;;15.74;100.00;96176.69;108512;1268;36289;-80
2022/08/22 02:02:52;;;;;;;0.80;0.40;;;;;;;15.74;100.00;96171.65;108551;1268;23518;-80
2022/08/22 02:05:30;;;;;;;1.30;0.50;;;;;;;15.74;100.00;96168.28;108608;1267;22468;-80
2022/08/22 02:08:05;;;;;;;1.60;0.50;;;;;;;15.73;100.00;96168.32;108518;1268;37113;-80
2022/08/22 02:10:51;;;;;;;1.80;0.70;;;;;;;15.74;100.00;96173.70;108579;1268;22650;-80
2022/08/22 02:13:33;;;;;;;1.70;0.90;;;;;;;15.76;100.00;96179.14;108567;1266;24237;-80
2022/08/22 02:16:11;;;;;;;2.10;1.20;;;;;;;15.76;100.00;96179.45;108553;1268;25379;-80
2022/08/22 02:18:56;;;;;;;3.30;1.00;;;;;;;15.76;100.00;96179.29;108502;1268;28210;-80
2022/08/22 02:21:38;;;;;;;2.50;1.20;;;;;;;15.76;100.00;96179.73;108580;1268;22547;-80
2022/08/22 02:24:27;;;;;;;2.20;0.80;;;;;;;15.75;100.00;96180.17;108593;1268;22475;-80
2022/08/22 02:27:09;;;;;;;8.00;1.60;;;;;;;15.80;100.00;96179.31;108527;1268;22551;-80
2022/08/22 02:29:46;;;;;;;3.00;1.70;;;;;;;15.83;100.00;96177.29;108517;1268;30502;-80
2022/08/22 02:32:22;;;;;;;2.00;1.00;;;;;;;15.83;100.00;96176.81;108563;1267;22545;-80
2022/08/22 02:35:02;;;;;;;3.20;1.50;;;;;;;15.84;100.00;96180.14;108520;1268;22529;-80
2022/08/22 02:37:39;;;;;;;2.70;1.40;;;;;;;15.85;100.00;96180.95;108588;1268;22454;-80
2022/08/22 02:40:16;;;;;;;1.70;1.10;;;;;;;15.88;100.00;96184.89;108590;1267;24209;-80
2022/08/22 02:42:50;;;;;;;3.60;1.20;;;;;;;15.87;100.00;96182.41;108561;1266;25324;-80
2022/08/22 02:45:37;;;;;;;3.50;1.40;;;;;;;15.89;100.00;96180.23;108544;1268;22531;-80
2022/08/22 02:48:20;;;;;;;3.40;1.40;;;;;;;15.93;100.00;96177.90;108501;1268;27165;-80
2022/08/22 02:50:55;;;;;;;3.40;2.10;;;;;;;15.94;100.00;96180.48;108522;1268;22477;-80
2022/08/22 02:53:36;;;;;;;2.80;1.90;;;;;;;15.94;100.00;96180.56;108562;1268;22534;-80
2022/08/22 02:56:13;;;;;;;3.90;1.70;;;;;;;15.98;100.00;96180.38;108543;1267;24221;-80
2022/08/22 02:59:01;;;;;;;3.30;1.90;;;;;;;16.01;100.00;96182.44;108481;1268;41389;-80
2022/08/22 03:01:40;;;;;;;3.00;1.70;;;;;;;16.05;100.00;96179.20;108589;1268;22729;-80
2022/08/22 03:04:27;;;;;;;4.40;2.00;;;;;;;16.09;100.00;96187.28;108581;1266;22554;-80
2022/08/22 03:07:11;;;;;;;3.00;2.00;;;;;;;16.02;100.00;96183.84;108581;1268;22470;-80
2022/08/22 03:09:48;;;;;;;3.80;2.00;;;;;;;15.99;100.00;96181.57;108478;1267;36283;-80
2022/08/22 03:12:27;;;;;;;3.90;2.10;;;;;;;15.97;100.00;96182.02;108559;1268;22549;-80
2022/08/22 03:15:06;;;;;;;4.20;2.10;;;;;;;15.95;100.00;96176.69;108507;1268;22473;-80
2022/08/22 03:17:50;;;;;;;4.70;2.30;;;;;;;15.91;100.00;96171.55;108514;1268;25373;-80
2022/08/22 03:20:41;;;;;;;4.00;2.00;;;;;;;15.87;100.00;96172.10;108510;1265;22486;-80
2022/08/22 03:23:19;;;;;;;4.60;2.10;;;;;;;15.88;100.00;96171.71;108543;1268;22524;-80
2022/08/22 03:25:57;;;;;;;4.00;2.10;;;;;;;15.86;100.00;96174.27;108535;1268;22480;-77
2022/08/22 03:28:31;;;;;;;4.10;2.20;;;;;;;15.85;100.00;96171.27;108451;1268;33056;-80
2022/08/22 03:31:10;;;;;;;5.00;2.20;;;;;;;15.86;100.00;96172.04;108557;1268;22822;-80
2022/08/22 03:33:40;;;;;;;5.70;2.40;;;;;;;15.85;100.00;96173.30;108562;1268;22482;-80
2022/08/22 03:36:30;;;;;;;5.20;2.70;;;;;;;15.85;100.00;96172.71;108522;1268;22488;-80
2022/08/22 03:39:13;;;;;;;5.00;2.80;;;;;;;15.87;100.00;96173.60;108499;1268;27671;-77
2022/08/22 03:42:04;;;;;;;5.10;2.30;;;;;;;15.88;100.00;96170.73;108449;1268;23726;-80
2022/08/22 03:45:14;;;;;;;3.90;2.30;;;;;;;15.92;100.00;96178.24;108497;1268;22548;-80
2022/08/22 03:48:13;;;;;;;7.40;2.90;;;;;;;15.97;100.00;96178.06;108278;1268;42802;-80
2022/08/22 03:51:17;;;;;;;4.10;2.50;;;;;;;16.00;100.00;96181.17;108490;1268;22550;-80
2022/08/22 03:54:19;;;;;;;5.20;2.80;;;;;;;16.02;100.00;96179.19;108395;1268;22549;-80
2022/08/22 03:57:33;;;;;;;5.00;2.50;;;;;;;15.98;100.00;96179.02;108571;1268;24386;-80
2022/08/22 04:00:59;;;;;;;5.10;2.60;;;;;;;16.01;100.00;96191.65;108393;1268;25259;-80
2022/08/22 04:04:02;;;;;;;5.10;2.70;;;;;;;16.06;100.00;96194.98;108062;1273;25330;-80
2022/08/22 04:06:58;;;;;;;5.70;2.50;;;;;;;16.06;100.00;96194.38;108542;1268;22666;-77
2022/08/22 04:09:51;;;;;;;6.30;3.10;;;;;;;16.04;100.00;96190.63;108372;1268;29771;-80
2022/08/22 04:12:54;;;;;;;5.10;2.40;;;;;;;16.02;100.00;96186.80;108550;1268;24927;-80
2022/08/22 04:15:41;;;;;;;6.70;3.30;;;;;;;15.97;100.00;96182.18;108512;1268;22659;-80
2022/08/22 04:18:47;;;;;;;6.20;3.00;;;;;;;15.94;100.00;96182.77;108497;1266;31205;-80
2022/08/22 04:21:42;;;;;;;6.20;3.10;;;;;;;15.97;100.00;96185.39;108481;1268;22671;-80
2022/08/22 04:24:32;;;;;;;7.60;3.50;;;;;;;16.01;100.00;96185.30;108521;1268;24238;-77
2022/08/22 04:27:11;;;;;;;6.10;2.70;;;;;;;16.08;100.00;96190.47;108528;1268;22771;-77
2022/08/22 04:29:48;;;;;;;5.40;2.30;;;;;;;16.10;100.00;96191.70;108491;1268;30774;-80
2022/08/22 04:32:24;;;;;;;4.10;2.10;;;;;;;16.12;100.00;96191.09;108471;1267;22587;-80
2022/08/22 04:35:02;;;;;;;5.30;2.90;;;;;;;16.13;100.00;96193.79;108575;1268;23146;-80
2022/08/22 04:37:38;;;;;;;5.00;2.40;;;;;;;16.15;100.00;96198.68;108557;1268;22523;-80
2022/08/22 04:40:16;;;;;;;4.50;2.20;;;;;;;16.16;100.00;96205.15;108395;1268;22761;-80
2022/08/22 04:42:50;;;;;;;4.60;2.30;;;;;;;16.16;100.00;96205.73;108524;1267;22589;-80
2022/08/22 04:45:23;;;;;;;7.50;3.20;;;;;;;16.10;100.00;96206.98;108510;1268;22474;-78
2022/08/22 04:47:59;;;;;;;5.30;2.50;;;;;;;16.06;100.00;96205.52;108490;1267;30958;-77
2022/08/22 04:50:34;;;;;;;5.20;2.20;;;;;;;16.02;100.00;96203.63;108569;1268;25305;-80
2022/08/22 04:53:41;;;;;;;4.80;2.40;;;;;;;16.01;100.00;96203.19;108531;1267;22539;-80
2022/08/22 04:56:21;;;;;;;6.40;2.70;;;;;;;16.04;100.00;96209.49;108291;1268;25388;-80
2022/08/22 04:58:51;;;;;;;;;;;;;;;16.08;100.00;96211.04;108509;1268;36435;-80
2022/08/22 05:01:25;;;;;;;9.50;3.70;;;;;;;16.14;100.00;96209.64;108506;1268;22548;-79
2022/08/22 05:03:58;;;;;;;7.50;3.20;;;;;;;16.19;100.00;96211.67;108535;1268;24122;-80
2022/08/22 05:06:29;;;;;;;7.70;3.90;;;;;;;16.24;100.00;96210.27;108569;1266;22471;-80
2022/08/22 05:09:02;;;;;;;8.10;3.80;;;;;;;16.29;100.00;96204.29;108449;1267;49672;-80
2022/08/22 05:11:33;;;;;;;9.00;5.20;;;;;;;16.34;100.00;96200.80;108490;1268;22649;-80
2022/08/22 05:14:09;;;;;;;10.40;5.60;;;;;;;16.33;100.00;96202.96;108578;1268;22479;-80
2022/08/22 05:16:41;;;;;;;9.10;5.40;;;;;;;16.33;100.00;96204.06;108543;1268;23461;-80
2022/08/22 05:19:19;;;;;;;10.10;5.00;;;;;;;16.37;100.00;96203.59;108400;1267;46294;-80
2022/08/22 05:21:52;;;;;;;10.80;6.20;;;;;;;16.43;100.00;96207.92;108512;1268;22575;-80
2022/08/22 05:24:25;;;;;;;11.10;6.30;;;;;;;16.51;100.00;96215.05;108541;1265;22588;-80
2022/08/22 05:26:57;;;;;;;11.70;6.50;;;;;;;16.57;100.00;96221.23;108514;1268;23075;-77
2022/08/22 05:29:30;;;;;;;10.60;6.60;;;;;;;16.63;100.00;96227.88;108457;1268;39745;-77
2022/08/22 05:32:02;;;;;;;11.10;6.80;;;;;;;16.68;100.00;96235.43;108561;1268;25089;-80
2022/08/22 05:34:37;;;;;;;11.00;6.50;;;;;;;16.70;100.00;96233.42;108541;1268;22550;-80
2022/08/22 05:37:13;;;;;;;11.50;6.00;;;;;;;16.72;100.00;96239.52;108537;1268;22574;-80
2022/08/22 05:39:46;;;;;;;11.40;6.20;;;;;;;16.69;100.00;96239.82;108473;1268;33570;-80
2022/08/22 05:42:24;;;;;;;11.20;5.40;;;;;;;16.62;100.00;96242.74;108444;1267;22650;-80
2022/08/22 05:44:55;;;;;;;8.80;4.50;;;;;;;16.60;100.00;96242.67;108555;1268;22498;-80
2022/08/22 05:47:27;;;;;;;8.40;4.90;;;;;;;16.61;100.00;96245.52;108566;1268;22684;-80
2022/08/22 05:50:01;;;;;;;11.40;5.30;;;;;;;16.62;100.00;96246.00;108466;1268;34575;-80
2022/08/22 05:52:41;;;;;;;8.10;4.90;;;;;;;16.63;100.00;96242.17;108471;1268;23535;-79
2022/08/22 05:55:21;;;;;;;9.90;5.20;;;;;;;16.62;100.00;96245.90;108557;1268;22577;-77
2022/08/22 05:57:59;;;;;;;11.00;6.50;;;;;;;16.61;100.00;96245.87;108493;1268;25414;-79
2022/08/22 06:00:32;;;;;;;8.60;5.10;;;;;;;16.62;100.00;96243.76;108411;1270;22568;-80
2022/08/22 06:03:12;;;;;;;7.90;5.10;;;;;;;16.60;100.00;96249.59;108514;1268;22694;-80
2022/08/22 06:05:48;;;;;;;10.70;5.60;;;;;;;16.64;100.00;96249.48;108530;1268;25260;-80
2022/08/22 06:08:24;;;;;;;9.00;4.60;;;;;;;16.68;100.00;96251.16;108468;1268;48001;-77
2022/08/22 06:10:56;;;;;;;7.50;4.10;;;;;;;16.70;100.00;96251.25;108552;1268;24222;-77
2022/08/22 06:13:34;;;;;;;7.80;4.20;;;;;;;16.73;100.00;96257.68;108546;1268;25294;-80
2022/08/22 06:16:10;;;;;;;8.80;4.00;;;;;;;16.77;100.00;96262.69;108573;1268;22531;-80
2022/08/22 06:18:42;;;;;;;7.20;4.20;;;;;;;16.80;100.00;96262.80;108429;1268;40475;-80
2022/08/22 06:21:20;;;;;;;7.50;4.20;;;;;;;16.81;100.00;96262.54;108475;1268;22664;-80
2022/08/22 06:24:01;;;;;;;7.90;3.70;;;;;;;16.76;100.00;96268.60;108527;1268;25369;-80
2022/08/22 06:26:36;;;;;;;7.50;4.00;;;;;;;16.66;100.00;96268.30;108436;1268;23838;-80
2022/08/22 06:29:08;;;;;;;6.10;3.50;;;;;;;16.60;100.00;96271.90;108456;1268;32016;-80
2022/08/22 06:31:42;;;;;;;6.90;3.40;;;;;;;16.60;100.00;96272.34;108440;1268;22540;-80
2022/08/22 06:34:15;;;;;;;5.70;3.50;;;;;;;16.58;100.00;96275.41;108451;1267;23434;-80
2022/08/22 06:36:49;;;;;;;6.90;3.60;;;;;;;16.61;100.00;96280.95;108431;1268;22485;-80
2022/08/22 06:39:21;;;;;;;7.90;4.10;;;;;;;16.69;100.00;96286.37;108452;1266;36622;-80
2022/08/22 06:41:55;;;;;;;6.40;3.50;;;;;;;16.71;100.00;96296.55;108463;1267;22513;-80
2022/08/22 06:44:29;;;;;;;6.00;3.30;;;;;;;16.70;100.00;96297.20;108504;1268;22589;-80
2022/08/22 06:47:00;;;;;;;7.50;3.50;;;;;;;16.71;100.00;96301.77;108548;1268;22538;-80
2022/08/22 06:49:32;;;;;;;6.10;3.40;;;;;;;16.70;100.00;96302.02;108509;1268;29671;-80
2022/08/22 06:52:07;;;;;;;5.90;3.50;;;;;;;16.69;100.00;96304.13;108611;1268;22467;-80
2022/08/22 06:54:41;;;;;;;5.30;3.00;;;;;;;16.67;100.00;96302.05;108460;1268;22684;-80
2022/08/22 06:57:27;;;;;;;5.50;2.60;;;;;;;16.60;100.00;96291.46;108582;1268;23786;-80
2022/08/22 06:59:57;;;;;;;8.50;3.70;;;;;;;16.61;100.00;96279.42;108484;1267;41834;-80
2022/08/22 07:02:27;;;;;;;;;;;;;;;16.70;100.00;96279.45;108565;1268;22638;-80
2022/08/22 07:04:57;;;;;;;7.00;3.90;;;;;;;16.77;100.00;96276.62;108453;1268;24332;-80
2022/08/22 07:07:29;;;;;;;6.10;3.60;;;;;;;16.84;100.00;96272.88;108548;1268;22568;-80
2022/08/22 07:09:58;;;;;;;7.90;3.70;;;;;;;16.90;100.00;96275.27;108494;1268;25140;-80
2022/08/22 07:12:31;;;;;;;8.20;3.80;;;;;;;16.90;100.00;96286.11;108609;1268;22482;-80
2022/08/22 07:15:12;;;;;;;6.30;3.70;;;;;;;16.83;100.00;96291.13;108543;1268;25251;-80
2022/08/22 07:17:49;;;;;;;6.90;3.90;;;;;;;16.75;100.00;96283.64;108567;1266;25383;-80
2022/08/22 07:20:26;;;;;;;7.00;4.40;;;;;;;16.77;100.00;96280.05;108572;1268;22668;-80
2022/08/22 07:23:01;;;;;;;7.60;3.80;;;;;;;16.83;100.00;96275.98;108590;1268;22501;-80
2022/08/22 07:25:34;;;;;;;7.60;4.30;;;;;;;16.87;100.00;96276.59;108510;1268;22478;-80
2022/08/22 07:28:24;;;;;;;7.00;3.90;;;;;;;16.90;100.00;96273.02;108437;1268;46113;-79
2022/08/22 07:30:57;;;;;;;8.00;4.50;;;;;;;16.94;100.00;96273.19;108570;1268;22572;-80
2022/08/22 07:33:41;;;;;;;9.50;4.20;;;;;;;16.93;100.00;96274.30;108560;1268;24015;-77
2022/08/22 07:36:21;;;;;;;7.90;4.20;;;;;;;16.94;100.00;96277.85;108540;1267;22502;-77
2022/08/22 07:39:13;;;;;;;10.30;4.80;;;;;;;16.97;100.00;96277.33;108510;1268;38448;-79
2022/08/22 07:41:58;;;;;;;7.10;4.70;;;;;;;16.99;100.00;96277.23;108462;1268;22713;-80
2022/08/22 07:44:34;;;;;;;7.80;4.90;;;;;;;17.02;100.00;96283.58;108577;1268;22600;-80
2022/08/22 07:47:08;;;;;;;8.90;4.90;;;;;;;17.04;100.00;96281.66;108538;1267;22564;-80
2022/08/22 07:49:43;;;;;;;7.20;4.30;;;;;;;17.03;100.00;96283.18;108394;1268;48893;-80
2022/08/22 07:52:14;;;;;;;7.30;4.50;;;;;;;17.07;100.00;96282.45;108538;1268;22481;-77
2022/08/22 07:54:49;;;;;;;8.50;5.20;;;;;;;17.12;100.00;96278.80;108562;1268;25376;-77
2022/08/22 07:57:26;;;;;;;22.60;17.40;;;;;;;17.14;100.00;96279.48;108523;1268;22485;-77
2022/08/22 07:59:59;;;;;;;13.50;9.60;;;;;;;17.10;100.00;96282.64;108451;1268;35922;-77
2022/08/22 08:02:29;;;;;;;6.50;4.00;;;;;;;17.02;100.00;96289.16;108583;1268;22678;-80
2022/08/22 08:05:00;;;;;;;6.30;4.10;;;;;;;16.96;100.00;96287.70;108445;1268;22542;-80
2022/08/22 08:07:31;;;;;;;16.70;8.00;;;;;;;16.89;100.00;96298.55;108561;1268;22482;-80
2022/08/22 08:10:05;;;;;;;9.00;5.00;;;;;;;16.83;100.00;96301.39;108503;1268;29349;-80
2022/08/22 08:12:38;;;;;;;9.50;5.30;;;;;;;16.83;100.00;96295.41;108586;1268;25838;-81
2022/08/22 08:15:14;;;;;;;10.20;6.30;;;;;;;16.89;100.00;96291.52;108553;1268;22479;-81
2022/08/22 08:17:47;;;;;;;12.00;7.80;;;;;;;16.96;100.00;96292.08;108522;1268;29236;-80
2022/08/22 08:20:20;;;;;;;14.30;9.20;;;;;;;16.98;100.00;96294.13;108613;1267;23829;-81
2022/08/22 08:22:51;;;;;;;14.30;9.30;;;;;;;16.96;100.00;96311.20;108531;1268;22473;-81
2022/08/22 08:25:25;;;;;;;16.70;9.60;;;;;;;16.92;100.00;96309.15;108523;1268;22562;-82
2022/08/22 08:30:55;;;;;;;12.30;8.40;;;;;;;16.93;100.00;96289.36;108422;1268;22470;-78
2022/08/22 08:33:27;;;;;;;10.10;6.80;;;;;;;16.98;100.00;96297.41;108583;1268;24176;-80
2022/08/22 08:36:05;;;;;;;11.00;6.80;;;;;;;17.01;100.00;96300.45;108484;1268;22518;-80
2022/08/22 08:38:41;;;;;;;8.70;5.90;;;;;;;17.05;100.00;96303.65;108424;1268;26039;-80
2022/08/22 08:41:50;;;;;;;10.80;7.90;;;;;;;17.08;100.00;96299.33;108569;1268;22589;-81
2022/08/22 08:44:37;;;;;;;33.10;13.70;;;;;;;17.13;100.00;96297.29;108482;1268;22578;-80
2022/08/22 08:47:27;;;;;;;17.10;10.50;;;;;;;17.15;100.00;96304.34;108557;1268;22553;-80
2022/08/22 08:50:15;;;;;;;61.10;20.70;;;;;;;17.10;100.00;96302.37;108493;1268;31165;-80
2022/08/22 08:53:08;;;;;;;21.00;10.90;;;;;;;17.03;100.00;96303.69;108589;1268;22582;-80
2022/08/22 08:55:46;;;;;;;10.60;7.60;;;;;;;17.01;100.00;96299.96;108620;1268;22487;-81
2022/08/22 08:58:34;;;;;;;13.10;8.10;;;;;;;17.04;100.00;96298.35;108453;1268;31653;-81
2022/08/22 09:01:18;;;;;;;10.50;7.00;;;;;;;17.16;100.00;96300.77;108592;1268;24237;-81
2022/08/22 09:04:30;;;;;;;9.60;6.10;;;;;;;17.24;100.00;96303.35;108471;1268;23367;-81
2022/08/22 09:07:40;;;;;;;7.80;4.90;;;;;;;17.34;100.00;96292.91;108390;1268;24068;-82
2022/08/22 09:10:37;;;;;;;7.40;4.70;;;;;;;17.40;100.00;96285.63;108580;1268;25105;-81
2022/08/22 09:13:33;;;;;;;7.20;4.80;;;;;;;17.47;100.00;96298.44;108589;1268;24227;-81
2022/08/22 09:16:25;;;;;;;6.80;4.90;;;;;;;17.45;100.00;96300.88;108570;1268;22671;-81
2022/08/22 09:19:39;;;;;;;7.90;5.70;;;;;;;17.38;100.00;96304.06;108490;1268;33342;-81
2022/08/22 09:22:36;;;;;;;6.50;5.10;;;;;;;17.40;100.00;96303.91;108069;1274;22510;-80
2022/08/22 09:25:22;;;;;;;6.80;4.70;;;;;;;17.51;100.00;96304.54;108493;1265;22783;-80
2022/08/22 09:28:00;;;;;;;6.10;4.90;;;;;;;17.63;100.00;96305.32;108513;1268;39865;-81
2022/08/22 09:30:44;;;;;;;8.60;5.20;;;;;;;17.70;100.00;96306.30;108589;1268;22480;-81
2022/08/22 09:33:19;;;;;;;10.60;5.30;;;;;;;17.82;100.00;96302.77;108628;1268;24030;-81
2022/08/22 09:35:59;;;;;;;7.80;5.30;;;;;;;17.98;100.00;96302.85;108564;1268;22542;-81
2022/08/22 09:38:50;;;;;;;6.40;4.90;;;;;;;18.23;100.00;96301.20;108504;1268;38400;-81
2022/08/22 09:41:35;;;;;;;5.90;4.80;;;;;;;18.49;100.00;96298.38;108596;1268;25497;-78
2022/08/22 09:44:19;;;;;;;8.70;6.50;;;;;;;18.62;100.00;96294.27;108580;1267;25375;-78
2022/08/22 09:47:05;;;;;;;8.80;7.70;;;;;;;18.55;100.00;96298.08;108605;1268;22539;-79
2022/08/22 09:49:47;;;;;;;8.50;7.30;;;;;;;18.41;100.00;96308.85;108498;1268;56937;-78
2022/08/22 09:52:30;;;;;;;9.50;7.50;;;;;;;18.27;100.00;96310.17;108530;1268;23775;-79
2022/08/22 09:55:05;;;;;;;8.40;7.10;;;;;;;18.27;100.00;96310.23;108558;1268;23094;-79
2022/08/22 09:57:41;;;;;;;9.00;7.40;;;;;;;18.24;100.00;96309.23;108594;1268;22552;-78
2022/08/22 10:00:20;;;;;;;8.90;7.70;;;;;;;18.27;100.00;96314.09;108573;1268;22480;-79
2022/08/22 10:03:00;;;;;;;8.80;7.90;;;;;;;18.39;100.00;96317.70;108576;1268;23336;-81
2022/08/22 10:05:42;;;;;;;9.10;8.20;;;;;;;18.45;100.00;96315.05;108575;1268;24338;-82
2022/08/22 10:08:21;;;;;;;10.00;9.00;;;;;;;18.52;100.00;96309.98;108547;1268;27685;-82
2022/08/22 10:11:27;;;;;;;8.80;7.80;;;;;;;18.69;100.00;96304.77;108475;1268;23798;-82
2022/08/22 10:14:02;;;;;;;9.80;8.40;;;;;;;18.86;100.00;96303.58;108383;1268;22563;-82
2022/08/22 10:17:05;;;;;;;9.90;9.00;;;;;;;18.90;100.00;96306.55;108589;1268;22559;-82
2022/08/22 10:19:39;;;;;;;10.00;9.00;;;;;;;18.86;100.00;96307.36;108462;1268;29410;-82
2022/08/22 10:22:33;;;;;;;11.10;10.00;;;;;;;18.81;100.00;96309.88;108451;1268;23733;-82
2022/08/22 10:25:19;;;;;;;12.40;11.10;;;;;;;18.80;100.00;96309.00;108525;1268;22531;-82
2022/08/22 10:28:16;;;;;;;12.10;10.80;;;;;;;18.76;100.00;96301.91;108454;1268;27385;-82
2022/08/22 10:30:57;;;;;;;11.90;10.60;;;;;;;18.84;100.00;96299.61;105571;1268;3946800;-82
2022/08/22 10:33:33;;;;;;;12.30;10.90;;;;;;;18.92;100.00;96297.93;108541;1268;25376;-82
2022/08/22 10:36:07;;;;;;;12.80;11.20;;;;;;;19.01;100.00;96297.88;108464;1267;22561;-82
2022/08/22 10:38:42;;;;;;;13.20;9.70;;;;;;;19.09;100.00;96298.80;108515;1267;24255;-82
2022/08/22 10:41:20;;;;;;;12.40;10.80;;;;;;;19.15;100.00;96301.14;108583;1268;22566;-83
2022/08/22 10:43:55;;;;;;;11.70;10.50;;;;;;;19.18;100.00;96302.38;108579;1268;24274;-82
2022/08/22 10:46:30;;;;;;;13.10;11.70;;;;;;;19.19;100.00;96300.88;108611;1268;22630;-82
2022/08/22 10:49:00;;;;;;;12.80;11.40;;;;;;;19.23;100.00;96300.81;108498;1268;40249;-82
2022/08/22 10:51:35;;;;;;;;;;;;;;;19.24;100.00;96299.93;108599;1268;22533;-82
2022/08/22 10:54:22;;;;;;;12.90;11.60;;;;;;;19.24;100.00;96297.55;108551;1268;22537;-80
2022/08/22 10:57:01;;;;;;;15.00;13.20;;;;;;;19.28;100.00;96299.50;108556;1268;25229;-80
2022/08/22 10:59:39;;;;;;;14.20;12.50;;;;;;;19.36;100.00;96305.64;108456;1268;40340;-79
2022/08/22 11:02:24;;;;;;;14.90;13.40;;;;;;;19.43;100.00;96309.36;108605;1268;22622;-79
2022/08/22 11:05:16;;;;;;;13.90;12.50;;;;;;;19.45;100.00;96310.27;108570;1268;22665;-80
2022/08/22 11:07:48;;;;;;;13.90;12.40;;;;;;;19.44;100.00;96309.72;108516;1268;34766;-79
2022/08/22 11:10:28;;;;;;;15.00;13.40;;;;;;;19.42;100.00;96315.41;108608;1268;22548;-79
2022/08/22 11:13:14;;;;;;;14.40;12.90;;;;;;;19.40;100.00;96314.66;108418;1268;22474;-80
2022/08/22 11:16:13;;;;;;;14.80;13.30;;;;;;;19.53;100.00;96309.73;108537;1268;22763;-82
2022/08/22 11:19:09;;;;;;;14.70;13.20;;;;;;;19.62;100.00;96305.39;108408;1266;45321;-82
2022/08/22 11:21:53;;;;;;;15.20;13.30;;;;;;;19.63;100.00;96303.78;108552;1268;22480;-82
2022/08/22 11:24:57;;;;;;;14.30;12.80;;;;;;;19.59;100.00;96306.21;108544;1268;22646;-79
2022/08/22 11:27:35;;;;;;;13.30;11.90;;;;;;;19.61;100.00;96296.90;108561;1268;22647;-81
2022/08/22 11:30:09;;;;;;;14.10;12.70;;;;;;;19.68;100.00;96296.69;108479;1268;53982;-82
2022/08/22 11:33:03;;;;;;;13.40;12.10;;;;;;;19.75;100.00;96305.34;108389;1267;22476;-82
2022/08/22 11:35:41;;;;;;;13.80;12.40;;;;;;;19.80;100.00;96308.38;108477;1267;23736;-82
2022/08/22 11:38:23;;;;;;;14.90;13.30;;;;;;;19.71;100.00;96304.01;108424;1267;56596;-82
2022/08/22 11:41:01;;;;;;;15.40;13.90;;;;;;;19.73;100.00;96296.84;108447;1268;24801;-81
2022/08/22 11:43:55;;;;;;;15.00;13.40;;;;;;;19.78;100.00;96298.42;108562;1268;22541;-82
2022/08/22 11:46:30;;;;;;;14.00;12.10;;;;;;;19.86;100.00;96294.95;108552;1267;22577;-79
2022/08/22 11:49:25;;;;;;;13.50;12.10;;;;;;;19.85;100.00;96295.09;108511;1268;43526;-79
2022/08/22 11:52:24;;;;;;;14.60;12.20;;;;;;;19.83;100.00;96300.61;108557;1266;22565;-79
2022/08/22 11:55:19;;;;;;;14.90;13.20;;;;;;;19.78;100.00;96297.74;108472;1267;22494;-79
2022/08/22 11:57:51;;;;;;;14.80;12.40;;;;;;;19.63;100.00;96300.33;108480;1268;29791;-76
2022/08/22 12:00:28;;;;;;;14.50;11.90;;;;;;;19.62;100.00;96298.54;108548;1267;24243;-76
2022/08/22 12:03:30;;;;;;;14.00;12.60;;;;;;;19.73;100.00;96298.23;108509;1268;22824;-76
2022/08/22 12:06:07;;;;;;;13.50;12.10;;;;;;;19.82;100.00;96287.46;108439;1268;23777;-76
2022/08/22 12:09:19;;;;;;;14.60;11.30;;;;;;;19.89;100.00;96286.09;108441;1268;35272;-77
2022/08/22 12:12:01;;;;;;;14.70;13.00;;;;;;;19.93;100.00;96286.11;108505;1268;22693;-79
2022/08/22 12:14:39;;;;;;;12.60;11.30;;;;;;;19.91;100.00;96291.21;108502;1267;22644;-79
2022/08/22 12:17:33;;;;;;;14.40;13.00;;;;;;;19.93;100.00;96285.59;108535;1267;22575;-80
2022/08/22 12:20:19;;;;;;;14.70;13.10;;;;;;;20.06;100.00;96283.98;108463;1265;24663;-80
2022/08/22 12:23:15;;;;;;;15.20;13.50;;;;;;;20.17;100.00;96280.27;108499;1268;22579;-79
2022/08/22 12:26:07;;;;;;;14.20;12.80;;;;;;;20.32;100.00;96275.54;108510;1267;25242;-80